sensor_id;sensor_type;location;lat;lon;timestamp;pressure;altitude;pressure_sealevel;temperature;humidity
9893;BME280;4985;49.092;8.542;2024-02-28T00:01:18;99356.44;;;16.58;49.19
9893;BME280;4985;49.092;8.542;2024-02-28T00:03:43;99364.41;;;16.58;49.35
9893;BME280;4985;49.092;8.542;2024-02-28T00:06:09;99367.06;;;16.58;49.55
9893;BME280;4985;49.092;8.542;2024-02-28T00:08:35;99367.06;;;16.58;49.32
9893;BME280;4985;49.092;8.542;2024-02-28T00:11:01;99371.56;;;16.57;49.24
9893;BME280;4985;49.092;8.542;2024-02-28T00:13:26;99373.41;;;16.57;49.43
9893;BME280;4985;49.092;8.542;2024-02-28T00:15:51;99378.72;;;16.57;49.46
9893;BME280;4985;49.092;8.542;2024-02-28T00:18:17;99377.91;;;16.56;49.20
9893;BME280;4985;49.092;8.542;2024-02-28T00:20:44;99377.91;;;16.56;49.30
9893;BME280;4985;49.092;8.542;2024-02-28T00:23:09;99377.09;;;16.56;49.29
9893;BME280;4985;49.092;8.542;2024-02-28T00:25:35;99377.91;;;16.56;49.38
9893;BME280;4985;49.092;8.542;2024-02-28T00:28:00;99387.72;;;16.56;49.60
9893;BME280;4985;49.092;8.542;2024-02-28T00:30:26;99386.69;;;16.57;49.40
9893;BME280;4985;49.092;8.542;2024-02-28T00:32:53;99385.06;;;16.56;49.28
9893;BME280;4985;49.092;8.542;2024-02-28T00:35:19;99395.50;;;16.57;49.46
9893;BME280;4985;49.092;8.542;2024-02-28T00:37:44;99398.16;;;16.57;49.60
9893;BME280;4985;49.092;8.542;2024-02-28T00:40:10;99386.69;;;16.57;49.21
9893;BME280;4985;49.092;8.542;2024-02-28T00:42:35;99394.88;;;16.55;49.56
9893;BME280;4985;49.092;8.542;2024-02-28T00:45:01;99389.75;;;16.54;49.40
9893;BME280;4985;49.092;8.542;2024-02-28T00:47:26;99391.41;;;16.55;49.48
9893;BME280;4985;49.092;8.542;2024-02-28T00:49:51;99393.25;;;16.54;49.48
9893;BME280;4985;49.092;8.542;2024-02-28T00:52:17;99401.22;;;16.54;49.42
9893;BME280;4985;49.092;8.542;2024-02-28T00:54:42;99398.56;;;16.54;49.47
9893;BME280;4985;49.092;8.542;2024-02-28T00:57:07;99399.38;;;16.55;49.66
9893;BME280;4985;49.092;8.542;2024-02-28T00:59:33;99401.22;;;16.54;49.31
9893;BME280;4985;49.092;8.542;2024-02-28T01:01:58;99399.53;;;16.53;49.58
9893;BME280;4985;49.092;8.542;2024-02-28T01:04:23;99398.56;;;16.54;49.48
9893;BME280;4985;49.092;8.542;2024-02-28T01:06:49;99402.19;;;16.53;49.40
9893;BME280;4985;49.092;8.542;2024-02-28T01:09:14;99406.69;;;16.53;49.71
9893;BME280;4985;49.092;8.542;2024-02-28T01:11:39;99408.38;;;16.54;49.42
9893;BME280;4985;49.092;8.542;2024-02-28T01:14:05;99406.69;;;16.53;49.58
9893;BME280;4985;49.092;8.542;2024-02-28T01:16:30;99411.19;;;16.52;49.46
9893;BME280;4985;49.092;8.542;2024-02-28T01:18:55;99408.53;;;16.52;49.74
9893;BME280;4985;49.092;8.542;2024-02-28T01:21:21;99415.69;;;16.52;49.67
9893;BME280;4985;49.092;8.542;2024-02-28T01:23:46;99412.00;;;16.53;49.50
9893;BME280;4985;49.092;8.542;2024-02-28T01:26:12;99411.19;;;16.52;49.63
9893;BME280;4985;49.092;8.542;2024-02-28T01:28:37;99408.75;;;16.51;49.60
9893;BME280;4985;49.092;8.542;2024-02-28T01:31:03;99403.44;;;16.51;49.50
9893;BME280;4985;49.092;8.542;2024-02-28T01:33:28;99406.91;;;16.51;49.62
9893;BME280;4985;49.092;8.542;2024-02-28T01:35:53;99403.44;;;16.51;49.74
9893;BME280;4985;49.092;8.542;2024-02-28T01:38:19;99406.09;;;16.51;49.62
9893;BME280;4985;49.092;8.542;2024-02-28T01:40:47;99399.13;;;16.50;49.54
9893;BME280;4985;49.092;8.542;2024-02-28T01:43:13;99400.78;;;16.51;49.41
9893;BME280;4985;49.092;8.542;2024-02-28T01:45:38;99394.63;;;16.50;49.62
9893;BME280;4985;49.092;8.542;2024-02-28T01:48:06;99399.13;;;16.50;49.76
9893;BME280;4985;49.092;8.542;2024-02-28T01:50:32;99403.63;;;16.49;49.50
9893;BME280;4985;49.092;8.542;2024-02-28T01:52:58;99403.44;;;16.51;49.69
9893;BME280;4985;49.092;8.542;2024-02-28T01:55:25;99395.66;;;16.49;49.59
9893;BME280;4985;49.092;8.542;2024-02-28T01:57:52;99405.47;;;16.49;49.65
9893;BME280;4985;49.092;8.542;2024-02-28T02:00:18;99400.16;;;16.49;49.71
9893;BME280;4985;49.092;8.542;2024-02-28T02:02:44;99394.84;;;16.49;49.59
9893;BME280;4985;49.092;8.542;2024-02-28T02:05:10;99401.78;;;16.50;49.50
9893;BME280;4985;49.092;8.542;2024-02-28T02:07:35;99413.44;;;16.49;49.80
9893;BME280;4985;49.092;8.542;2024-02-28T02:10:01;99417.13;;;16.48;49.62
9893;BME280;4985;49.092;8.542;2024-02-28T02:12:27;99419.78;;;16.48;49.50
9893;BME280;4985;49.092;8.542;2024-02-28T02:14:52;99430.41;;;16.48;49.83
9893;BME280;4985;49.092;8.542;2024-02-28T02:17:17;99431.44;;;16.47;49.57
9893;BME280;4985;49.092;8.542;2024-02-28T02:19:43;99433.25;;;16.46;49.41
9893;BME280;4985;49.092;8.542;2024-02-28T02:22:10;99438.56;;;16.46;49.60
9893;BME280;4985;49.092;8.542;2024-02-28T02:24:36;99435.91;;;16.46;49.69
9893;BME280;4985;49.092;8.542;2024-02-28T02:27:02;99438.56;;;16.46;49.59
9893;BME280;4985;49.092;8.542;2024-02-28T02:29:30;99443.88;;;16.46;49.96
9893;BME280;4985;49.092;8.542;2024-02-28T02:31:55;99443.06;;;16.46;49.75
9893;BME280;4985;49.092;8.542;2024-02-28T02:34:21;99453.69;;;16.46;49.72
9893;BME280;4985;49.092;8.542;2024-02-28T02:36:46;99453.69;;;16.46;49.77
9893;BME280;4985;49.092;8.542;2024-02-28T02:39:11;99452.88;;;16.45;49.74
9893;BME280;4985;49.092;8.542;2024-02-28T02:41:37;99459.00;;;16.46;49.51
9893;BME280;4985;49.092;8.542;2024-02-28T02:44:02;99463.72;;;16.44;49.59
9893;BME280;4985;49.092;8.542;2024-02-28T02:46:28;99461.06;;;16.44;49.79
9893;BME280;4985;49.092;8.542;2024-02-28T02:48:53;99470.66;;;16.45;49.58
9893;BME280;4985;49.092;8.542;2024-02-28T02:51:19;99477.81;;;16.44;49.60
9893;BME280;4985;49.092;8.542;2024-02-28T02:53:45;99483.94;;;16.45;49.56
9893;BME280;4985;49.092;8.542;2024-02-28T02:56:10;99488.66;;;16.43;49.52
9893;BME280;4985;49.092;8.542;2024-02-28T02:58:35;99494.78;;;16.43;49.67
9893;BME280;4985;49.092;8.542;2024-02-28T03:01:01;99492.94;;;16.44;49.60
9893;BME280;4985;49.092;8.542;2024-02-28T03:03:26;99502.75;;;16.43;49.59
9893;BME280;4985;49.092;8.542;2024-02-28T03:05:51;99495.78;;;16.42;49.65
9893;BME280;4985;49.092;8.542;2024-02-28T03:08:17;99508.88;;;16.44;49.64
9893;BME280;4985;49.092;8.542;2024-02-28T03:10:42;99505.41;;;16.43;49.57
9893;BME280;4985;49.092;8.542;2024-02-28T03:13:07;99519.72;;;16.42;49.62
9893;BME280;4985;49.092;8.542;2024-02-28T03:15:33;99514.56;;;16.41;49.63
9893;BME280;4985;49.092;8.542;2024-02-28T03:17:59;99514.56;;;16.41;49.57
9893;BME280;4985;49.092;8.542;2024-02-28T03:20:24;99513.75;;;16.40;49.70
9893;BME280;4985;49.092;8.542;2024-02-28T03:22:51;99507.41;;;16.41;49.86
9893;BME280;4985;49.092;8.542;2024-02-28T03:25:16;99503.13;;;16.40;49.68
9893;BME280;4985;49.092;8.542;2024-02-28T03:27:42;99511.91;;;16.41;49.55
9893;BME280;4985;49.092;8.542;2024-02-28T03:30:08;99510.25;;;16.40;49.42
9893;BME280;4985;49.092;8.542;2024-02-28T03:32:33;99504.75;;;16.41;49.59
9893;BME280;4985;49.092;8.542;2024-02-28T03:34:58;99512.91;;;16.40;49.81
9893;BME280;4985;49.092;8.542;2024-02-28T03:37:24;99517.41;;;16.39;49.78
9893;BME280;4985;49.092;8.542;2024-02-28T03:39:49;99519.25;;;16.39;49.78
9893;BME280;4985;49.092;8.542;2024-02-28T03:42:14;99523.56;;;16.40;49.88
9893;BME280;4985;49.092;8.542;2024-02-28T03:44:40;99521.91;;;16.39;49.71
9893;BME280;4985;49.092;8.542;2024-02-28T03:47:05;99516.59;;;16.39;49.57
9893;BME280;4985;49.092;8.542;2024-02-28T03:49:31;99521.91;;;16.39;49.58
9893;BME280;4985;49.092;8.542;2024-02-28T03:51:56;99526.41;;;16.38;49.73
9893;BME280;4985;49.092;8.542;2024-02-28T03:54:21;99524.56;;;16.39;49.77
9893;BME280;4985;49.092;8.542;2024-02-28T03:56:47;99530.91;;;16.38;49.76
9893;BME280;4985;49.092;8.542;2024-02-28T03:59:12;99531.72;;;16.38;49.82
9893;BME280;4985;49.092;8.542;2024-02-28T04:01:38;99536.22;;;16.38;49.63
9893;BME280;4985;49.092;8.542;2024-02-28T04:04:03;99536.22;;;16.38;49.55
9893;BME280;4985;49.092;8.542;2024-02-28T04:06:28;99541.53;;;16.38;49.60
9893;BME280;4985;49.092;8.542;2024-02-28T04:08:54;99538.06;;;16.37;49.86
9893;BME280;4985;49.092;8.542;2024-02-28T04:11:20;99541.53;;;16.38;49.85
9893;BME280;4985;49.092;8.542;2024-02-28T04:13:45;99541.72;;;16.36;49.76
9893;BME280;4985;49.092;8.542;2024-02-28T04:16:10;99545.19;;;16.37;49.71
9893;BME280;4985;49.092;8.542;2024-02-28T04:18:36;99547.84;;;16.37;49.90
9893;BME280;4985;49.092;8.542;2024-02-28T04:21:02;99550.50;;;16.37;49.62
9893;BME280;4985;49.092;8.542;2024-02-28T04:23:27;99555.81;;;16.37;49.55
9893;BME280;4985;49.092;8.542;2024-02-28T04:25:52;99555.81;;;16.37;49.85
9893;BME280;4985;49.092;8.542;2024-02-28T04:28:18;99547.84;;;16.37;49.61
9893;BME280;4985;49.092;8.542;2024-02-28T04:30:43;99555.81;;;16.37;49.77
9893;BME280;4985;49.092;8.542;2024-02-28T04:33:09;99559.50;;;16.36;49.69
9893;BME280;4985;49.092;8.542;2024-02-28T04:35:34;99558.69;;;16.35;49.83
9893;BME280;4985;49.092;8.542;2024-02-28T04:37:59;99570.13;;;16.36;49.70
9893;BME280;4985;49.092;8.542;2024-02-28T04:40:25;99567.47;;;16.36;49.90
9893;BME280;4985;49.092;8.542;2024-02-28T04:42:50;99574.63;;;16.35;49.78
9893;BME280;4985;49.092;8.542;2024-02-28T04:45:15;99570.31;;;16.34;49.54
9893;BME280;4985;49.092;8.542;2024-02-28T04:47:41;99584.44;;;16.35;49.42
9893;BME280;4985;49.092;8.542;2024-02-28T04:50:06;99585.44;;;16.34;49.49
9893;BME280;4985;49.092;8.542;2024-02-28T04:52:32;99588.09;;;16.34;49.52
9893;BME280;4985;49.092;8.542;2024-02-28T04:54:58;99591.78;;;16.33;49.77
9893;BME280;4985;49.092;8.542;2024-02-28T04:57:23;99588.09;;;16.34;49.67
9893;BME280;4985;49.092;8.542;2024-02-28T04:59:48;99595.44;;;16.32;49.89
9893;BME280;4985;49.092;8.542;2024-02-28T05:02:14;99595.44;;;16.32;49.57
9893;BME280;4985;49.092;8.542;2024-02-28T05:04:39;99602.41;;;16.33;49.61
9893;BME280;4985;49.092;8.542;2024-02-28T05:07:05;99616.72;;;16.32;49.67
9893;BME280;4985;49.092;8.542;2024-02-28T05:09:32;99607.06;;;16.30;49.69
9893;BME280;4985;49.092;8.542;2024-02-28T05:11:58;99621.19;;;16.31;49.84
9893;BME280;4985;49.092;8.542;2024-02-28T05:14:24;99616.72;;;16.32;49.57
9893;BME280;4985;49.092;8.542;2024-02-28T05:16:49;99616.72;;;16.32;49.36
9893;BME280;4985;49.092;8.542;2024-02-28T05:19:15;99618.34;;;16.33;49.88
9893;BME280;4985;49.092;8.542;2024-02-28T05:21:43;99612.38;;;16.30;49.70
9893;BME280;4985;49.092;8.542;2024-02-28T05:24:08;99618.53;;;16.31;49.62
9893;BME280;4985;49.092;8.542;2024-02-28T05:26:35;99609.72;;;16.30;49.95
9893;BME280;4985;49.092;8.542;2024-02-28T05:29:02;99612.38;;;16.30;49.87
9893;BME280;4985;49.092;8.542;2024-02-28T05:31:28;99615.88;;;16.31;49.67
9893;BME280;4985;49.092;8.542;2024-02-28T05:33:55;99610.72;;;16.29;49.60
9893;BME280;4985;49.092;8.542;2024-02-28T05:36:26;99608.06;;;16.29;49.57
9893;BME280;4985;49.092;8.542;2024-02-28T05:38:53;99611.75;;;16.28;49.60
9893;BME280;4985;49.092;8.542;2024-02-28T05:41:19;99613.41;;;16.29;49.63
9893;BME280;4985;49.092;8.542;2024-02-28T05:43:45;99609.09;;;16.28;49.88
9893;BME280;4985;49.092;8.542;2024-02-28T05:46:14;99603.78;;;16.28;49.76
9893;BME280;4985;49.092;8.542;2024-02-28T05:48:44;99611.75;;;16.28;49.73
9893;BME280;4985;49.092;8.542;2024-02-28T05:51:10;99611.75;;;16.28;49.65
9893;BME280;4985;49.092;8.542;2024-02-28T05:53:36;99611.75;;;16.28;49.96
9893;BME280;4985;49.092;8.542;2024-02-28T05:56:02;99613.78;;;16.26;49.52
9893;BME280;4985;49.092;8.542;2024-02-28T05:58:28;99612.78;;;16.27;49.78
9893;BME280;4985;49.092;8.542;2024-02-28T06:00:53;99621.56;;;16.28;49.61
9893;BME280;4985;49.092;8.542;2024-02-28T06:03:19;99620.75;;;16.27;49.69
9893;BME280;4985;49.092;8.542;2024-02-28T06:05:44;99622.56;;;16.27;49.67
9893;BME280;4985;49.092;8.542;2024-02-28T06:08:10;99628.72;;;16.27;49.83
9893;BME280;4985;49.092;8.542;2024-02-28T06:10:35;99629.72;;;16.26;49.88
9893;BME280;4985;49.092;8.542;2024-02-28T06:13:02;99636.88;;;16.26;49.85
9893;BME280;4985;49.092;8.542;2024-02-28T06:15:27;99634.22;;;16.26;49.68
9893;BME280;4985;49.092;8.542;2024-02-28T06:17:52;99646.69;;;16.25;49.83
9893;BME280;4985;49.092;8.542;2024-02-28T06:20:18;99644.03;;;16.25;49.48
9893;BME280;4985;49.092;8.542;2024-02-28T06:22:43;99641.38;;;16.25;49.93
9893;BME280;4985;49.092;8.542;2024-02-28T06:25:08;99645.03;;;16.24;49.50
9893;BME280;4985;49.092;8.542;2024-02-28T06:27:43;99653.00;;;16.24;49.64
9893;BME280;4985;49.092;8.542;2024-02-28T06:30:08;99653.00;;;16.24;49.64
9893;BME280;4985;49.092;8.542;2024-02-28T06:32:34;99662.00;;;16.23;49.56
9893;BME280;4985;49.092;8.542;2024-02-28T06:34:59;99658.31;;;16.24;49.65
9893;BME280;4985;49.092;8.542;2024-02-28T06:37:25;99657.50;;;16.24;49.77
9893;BME280;4985;49.092;8.542;2024-02-28T06:39:50;99656.69;;;16.23;49.80
9893;BME280;4985;49.092;8.542;2024-02-28T06:42:16;99667.31;;;16.23;49.76
9893;BME280;4985;49.092;8.542;2024-02-28T06:44:41;99672.63;;;16.23;49.72
9893;BME280;4985;49.092;8.542;2024-02-28T06:47:07;99675.47;;;16.22;49.61
9893;BME280;4985;49.092;8.542;2024-02-28T06:49:32;99678.13;;;16.22;49.58
9893;BME280;4985;49.092;8.542;2024-02-28T06:51:57;99679.97;;;16.21;49.62
9893;BME280;4985;49.092;8.542;2024-02-28T06:54:26;99690.59;;;16.21;49.75
9893;BME280;4985;49.092;8.542;2024-02-28T06:56:51;99690.59;;;16.21;49.78
9893;BME280;4985;49.092;8.542;2024-02-28T06:59:17;99690.59;;;16.21;49.81
9893;BME280;4985;49.092;8.542;2024-02-28T07:01:42;99695.91;;;16.21;49.68
9893;BME280;4985;49.092;8.542;2024-02-28T07:04:07;99703.88;;;16.21;49.81
9893;BME280;4985;49.092;8.542;2024-02-28T07:06:33;99705.69;;;16.21;49.68
9893;BME280;4985;49.092;8.542;2024-02-28T07:08:58;99718.16;;;16.20;49.62
9893;BME280;4985;49.092;8.542;2024-02-28T07:11:23;99720.81;;;16.20;49.61
9893;BME280;4985;49.092;8.542;2024-02-28T07:13:48;99724.47;;;16.19;49.51
9893;BME280;4985;49.092;8.542;2024-02-28T07:16:14;99725.31;;;16.20;49.58
9893;BME280;4985;49.092;8.542;2024-02-28T07:18:39;99721.81;;;16.19;50.00
9893;BME280;4985;49.092;8.542;2024-02-28T07:21:05;99731.59;;;16.19;49.81
9893;BME280;4985;49.092;8.542;2024-02-28T07:23:32;99737.09;;;16.17;49.83
9893;BME280;4985;49.092;8.542;2024-02-28T07:25:57;99737.94;;;16.18;49.76
9893;BME280;4985;49.092;8.542;2024-02-28T07:28:23;99742.41;;;16.17;49.58
9893;BME280;4985;49.092;8.542;2024-02-28T07:30:48;99735.47;;;16.16;49.98
9893;BME280;4985;49.092;8.542;2024-02-28T07:33:13;99743.44;;;16.16;49.58
9893;BME280;4985;49.092;8.542;2024-02-28T07:35:49;99743.44;;;16.16;49.93
9893;BME280;4985;49.092;8.542;2024-02-28T07:38:15;99746.91;;;16.17;49.88
9893;BME280;4985;49.092;8.542;2024-02-28T07:40:42;99748.75;;;16.16;49.70
9893;BME280;4985;49.092;8.542;2024-02-28T07:43:08;99755.91;;;16.16;50.00
9893;BME280;4985;49.092;8.542;2024-02-28T07:45:33;99760.19;;;16.17;50.06
9893;BME280;4985;49.092;8.542;2024-02-28T07:47:58;99756.72;;;16.16;49.67
9893;BME280;4985;49.092;8.542;2024-02-28T07:50:24;99753.03;;;16.17;49.86
9893;BME280;4985;49.092;8.542;2024-02-28T07:52:49;99764.69;;;16.16;49.64
9893;BME280;4985;49.092;8.542;2024-02-28T07:55:15;99771.00;;;16.15;49.60
9893;BME280;4985;49.092;8.542;2024-02-28T07:57:40;99777.13;;;16.16;49.77
9893;BME280;4985;49.092;8.542;2024-02-28T08:00:06;99777.13;;;16.16;49.77
9893;BME280;4985;49.092;8.542;2024-02-28T08:02:32;99771.00;;;16.15;49.85
9893;BME280;4985;49.092;8.542;2024-02-28T08:04:58;99773.66;;;16.15;50.02
9893;BME280;4985;49.092;8.542;2024-02-28T08:07:23;99778.97;;;16.15;49.72
9893;BME280;4985;49.092;8.542;2024-02-28T08:09:49;99774.47;;;16.16;49.65
9893;BME280;4985;49.092;8.542;2024-02-28T08:12:14;99769.16;;;16.16;49.64
9893;BME280;4985;49.092;8.542;2024-02-28T08:14:39;99772.66;;;16.16;49.89
9893;BME280;4985;49.092;8.542;2024-02-28T08:17:05;99777.97;;;16.16;50.00
9893;BME280;4985;49.092;8.542;2024-02-28T08:19:30;99781.63;;;16.15;49.83
9893;BME280;4985;49.092;8.542;2024-02-28T08:21:55;99777.13;;;16.16;50.04
9893;BME280;4985;49.092;8.542;2024-02-28T08:24:21;99778.78;;;16.17;49.74
9893;BME280;4985;49.092;8.542;2024-02-28T08:26:46;99785.94;;;16.16;49.87
9893;BME280;4985;49.092;8.542;2024-02-28T08:29:11;99782.44;;;16.16;49.59
9893;BME280;4985;49.092;8.542;2024-02-28T08:31:43;99785.94;;;16.16;49.92
9893;BME280;4985;49.092;8.542;2024-02-28T08:34:09;99782.44;;;16.16;50.07
9893;BME280;4985;49.092;8.542;2024-02-28T08:36:35;99788.59;;;16.16;49.94
9893;BME280;4985;49.092;8.542;2024-02-28T08:39:00;99788.59;;;16.16;49.76
9893;BME280;4985;49.092;8.542;2024-02-28T08:41:26;99778.78;;;16.17;49.87
9893;BME280;4985;49.092;8.542;2024-02-28T08:43:51;99786.94;;;16.15;49.66
9893;BME280;4985;49.092;8.542;2024-02-28T08:46:16;99786.94;;;16.15;49.78
9893;BME280;4985;49.092;8.542;2024-02-28T08:48:42;99791.44;;;16.15;49.94
9893;BME280;4985;49.092;8.542;2024-02-28T08:51:07;99792.25;;;16.15;49.66
9893;BME280;4985;49.092;8.542;2024-02-28T08:53:33;99788.78;;;16.15;49.76
9893;BME280;4985;49.092;8.542;2024-02-28T08:55:58;99781.63;;;16.15;49.76
9893;BME280;4985;49.092;8.542;2024-02-28T08:58:23;99788.59;;;16.16;49.83
9893;BME280;4985;49.092;8.542;2024-02-28T09:00:49;99796.56;;;16.16;49.56
9893;BME280;4985;49.092;8.542;2024-02-28T09:03:14;99791.25;;;16.16;49.65
9893;BME280;4985;49.092;8.542;2024-02-28T09:05:39;99788.41;;;16.18;49.75
9893;BME280;4985;49.092;8.542;2024-02-28T09:08:05;99790.22;;;16.17;49.77
9893;BME280;4985;49.092;8.542;2024-02-28T09:10:30;99787.56;;;16.17;49.90
9893;BME280;4985;49.092;8.542;2024-02-28T09:12:59;99790.22;;;16.17;49.86
9893;BME280;4985;49.092;8.542;2024-02-28T09:15:24;99783.09;;;16.18;49.64
9893;BME280;4985;49.092;8.542;2024-02-28T09:17:50;99784.91;;;16.17;49.76
9893;BME280;4985;49.092;8.542;2024-02-28T09:20:15;99788.59;;;16.16;50.01
9893;BME280;4985;49.092;8.542;2024-02-28T09:22:42;99787.56;;;16.17;49.59
9893;BME280;4985;49.092;8.542;2024-02-28T09:25:07;99799.22;;;16.16;49.81
9893;BME280;4985;49.092;8.542;2024-02-28T09:27:34;99798.38;;;16.16;49.81
9893;BME280;4985;49.092;8.542;2024-02-28T09:30:00;99803.69;;;16.16;50.00
9893;BME280;4985;49.092;8.542;2024-02-28T09:32:25;99805.34;;;16.17;49.80
9893;BME280;4985;49.092;8.542;2024-02-28T09:34:50;99802.88;;;16.15;49.63
9893;BME280;4985;49.092;8.542;2024-02-28T09:37:16;99804.53;;;16.16;49.99
9893;BME280;4985;49.092;8.542;2024-02-28T09:39:42;99808.81;;;16.17;50.05
9893;BME280;4985;49.092;8.542;2024-02-28T09:42:07;99812.50;;;16.16;49.82
9893;BME280;4985;49.092;8.542;2024-02-28T09:44:36;99803.50;;;16.17;50.02
9893;BME280;4985;49.092;8.542;2024-02-28T09:47:01;99805.34;;;16.17;49.66
9893;BME280;4985;49.092;8.542;2024-02-28T09:49:28;99800.03;;;16.17;49.93
9893;BME280;4985;49.092;8.542;2024-02-28T09:51:56;99805.16;;;16.18;50.03
9893;BME280;4985;49.092;8.542;2024-02-28T09:54:22;99813.13;;;16.18;50.02
9893;BME280;4985;49.092;8.542;2024-02-28T09:56:51;99815.78;;;16.18;50.14
9893;BME280;4985;49.092;8.542;2024-02-28T09:59:18;99814.13;;;16.17;49.53
9893;BME280;4985;49.092;8.542;2024-02-28T10:01:47;99818.44;;;16.18;49.70
9893;BME280;4985;49.092;8.542;2024-02-28T10:04:15;99825.38;;;16.19;49.73
9893;BME280;4985;49.092;8.542;2024-02-28T10:06:40;99825.38;;;16.19;49.85
9893;BME280;4985;49.092;8.542;2024-02-28T10:09:06;99822.72;;;16.19;49.92
9893;BME280;4985;49.092;8.542;2024-02-28T10:11:32;99828.91;;;16.20;49.88
9893;BME280;4985;49.092;8.542;2024-02-28T10:13:58;99828.03;;;16.19;49.73
9893;BME280;4985;49.092;8.542;2024-02-28T10:16:24;99831.56;;;16.20;49.87
9893;BME280;4985;49.092;8.542;2024-02-28T10:18:50;99830.69;;;16.19;49.83
9893;BME280;4985;49.092;8.542;2024-02-28T10:21:15;99827.06;;;16.20;49.79
9893;BME280;4985;49.092;8.542;2024-02-28T10:23:41;99835.03;;;16.20;50.12
9893;BME280;4985;49.092;8.542;2024-02-28T10:26:09;99836.69;;;16.21;49.66
9893;BME280;4985;49.092;8.542;2024-02-28T10:28:38;99839.34;;;16.21;49.85
9893;BME280;4985;49.092;8.542;2024-02-28T10:31:05;99849.13;;;16.21;49.98
9893;BME280;4985;49.092;8.542;2024-02-28T10:33:32;99848.31;;;16.20;49.91
9893;BME280;4985;49.092;8.542;2024-02-28T10:35:59;99862.22;;;16.22;49.88
9893;BME280;4985;49.092;8.542;2024-02-28T10:38:26;99864.88;;;16.22;50.04
9893;BME280;4985;49.092;8.542;2024-02-28T10:40:52;99870.19;;;16.22;49.86
9893;BME280;4985;49.092;8.542;2024-02-28T10:43:19;99867.53;;;16.22;50.28
9893;BME280;4985;49.092;8.542;2024-02-28T10:45:45;99867.53;;;16.22;49.72
9893;BME280;4985;49.092;8.542;2024-02-28T10:48:14;99869.38;;;16.22;49.88
9893;BME280;4985;49.092;8.542;2024-02-28T10:50:39;99864.06;;;16.22;50.00
9893;BME280;4985;49.092;8.542;2024-02-28T10:53:12;99874.50;;;16.23;50.10
9893;BME280;4985;49.092;8.542;2024-02-28T10:55:40;99872.84;;;16.22;49.87
9893;BME280;4985;49.092;8.542;2024-02-28T10:58:09;99871.84;;;16.23;50.08
9893;BME280;4985;49.092;8.542;2024-02-28T11:00:41;99871.84;;;16.23;49.75
9893;BME280;4985;49.092;8.542;2024-02-28T11:03:10;99868.38;;;16.23;49.79
9893;BME280;4985;49.092;8.542;2024-02-28T11:05:39;99866.72;;;16.22;50.13
9893;BME280;4985;49.092;8.542;2024-02-28T11:08:21;99868.38;;;16.23;49.73
9893;BME280;4985;49.092;8.542;2024-02-28T11:10:54;99878.81;;;16.24;49.67
9893;BME280;4985;49.092;8.542;2024-02-28T11:13:24;99872.84;;;16.22;49.78
9893;BME280;4985;49.092;8.542;2024-02-28T11:15:50;99865.53;;;16.24;50.01
9893;BME280;4985;49.092;8.542;2024-02-28T11:18:15;99868.38;;;16.23;50.13
9893;BME280;4985;49.092;8.542;2024-02-28T11:20:41;99867.16;;;16.25;49.89
9893;BME280;4985;49.092;8.542;2024-02-28T11:23:07;99866.34;;;16.25;50.06
9893;BME280;4985;49.092;8.542;2024-02-28T11:25:34;99872.47;;;16.25;50.03
9893;BME280;4985;49.092;8.542;2024-02-28T11:28:00;99872.47;;;16.25;49.60
9893;BME280;4985;49.092;8.542;2024-02-28T11:30:25;99873.31;;;16.26;49.93
9893;BME280;4985;49.092;8.542;2024-02-28T11:32:54;99869.63;;;16.27;50.06
9893;BME280;4985;49.092;8.542;2024-02-28T11:35:20;99873.13;;;16.27;49.94
9893;BME280;4985;49.092;8.542;2024-02-28T11:37:46;99868.81;;;16.26;49.82
9893;BME280;4985;49.092;8.542;2024-02-28T11:40:13;99868.63;;;16.28;49.90
9893;BME280;4985;49.092;8.542;2024-02-28T11:42:38;99877.41;;;16.28;49.97
9893;BME280;4985;49.092;8.542;2024-02-28T11:45:10;99872.09;;;16.28;49.82
9893;BME280;4985;49.092;8.542;2024-02-28T11:47:35;99874.75;;;16.28;49.78
9893;BME280;4985;49.092;8.542;2024-02-28T11:50:02;99877.41;;;16.28;49.88
9893;BME280;4985;49.092;8.542;2024-02-28T11:52:30;99874.75;;;16.28;49.78
9893;BME280;4985;49.092;8.542;2024-02-28T11:54:56;99872.09;;;16.28;49.89
9893;BME280;4985;49.092;8.542;2024-02-28T11:57:21;99872.91;;;16.29;49.81
9893;BME280;4985;49.092;8.542;2024-02-28T11:59:47;99875.38;;;16.30;50.06
9893;BME280;4985;49.092;8.542;2024-02-28T12:02:17;99869.09;;;16.32;49.77
9893;BME280;4985;49.092;8.542;2024-02-28T12:04:43;99860.31;;;16.31;49.70
9893;BME280;4985;49.092;8.542;2024-02-28T12:07:09;99865.44;;;16.33;49.76
9893;BME280;4985;49.092;8.542;2024-02-28T12:09:34;99860.31;;;16.31;49.92
9893;BME280;4985;49.092;8.542;2024-02-28T12:12:01;99863.59;;;16.33;49.85
9893;BME280;4985;49.092;8.542;2024-02-28T12:14:27;99863.78;;;16.32;50.00
9893;BME280;4985;49.092;8.542;2024-02-28T12:16:52;99862.75;;;16.33;49.59
9893;BME280;4985;49.092;8.542;2024-02-28T12:19:18;99862.38;;;16.36;49.93
9893;BME280;4985;49.092;8.542;2024-02-28T12:21:45;99855.44;;;16.35;49.73
9893;BME280;4985;49.092;8.542;2024-02-28T12:24:11;99851.75;;;16.36;49.71
9893;BME280;4985;49.092;8.542;2024-02-28T12:26:38;99845.63;;;16.35;49.87
9893;BME280;4985;49.092;8.542;2024-02-28T12:29:03;99845.63;;;16.35;49.83
9893;BME280;4985;49.092;8.542;2024-02-28T12:31:28;99832.34;;;16.35;49.61
9893;BME280;4985;49.092;8.542;2024-02-28T12:33:54;99826.84;;;16.37;49.76
9893;BME280;4985;49.092;8.542;2024-02-28T12:36:20;99836.63;;;16.36;49.87
9893;BME280;4985;49.092;8.542;2024-02-28T12:38:46;99829.50;;;16.37;49.93
9893;BME280;4985;49.092;8.542;2024-02-28T12:41:11;99826.84;;;16.37;49.82
9893;BME280;4985;49.092;8.542;2024-02-28T12:43:38;99826.84;;;16.37;50.04
9893;BME280;4985;49.092;8.542;2024-02-28T12:46:04;99818.66;;;16.38;49.79
9893;BME280;4985;49.092;8.542;2024-02-28T12:48:29;99807.22;;;16.38;49.65
9893;BME280;4985;49.092;8.542;2024-02-28T12:50:56;99807.22;;;16.38;49.76
9893;BME280;4985;49.092;8.542;2024-02-28T12:53:21;99808.03;;;16.38;50.04
9893;BME280;4985;49.092;8.542;2024-02-28T12:55:47;99810.69;;;16.38;49.97
9893;BME280;4985;49.092;8.542;2024-02-28T12:58:12;99807.22;;;16.38;49.91
9893;BME280;4985;49.092;8.542;2024-02-28T13:00:37;99808.03;;;16.38;50.04
9893;BME280;4985;49.092;8.542;2024-02-28T13:03:03;99795.56;;;16.39;49.69
9893;BME280;4985;49.092;8.542;2024-02-28T13:05:29;99795.56;;;16.39;49.90
9893;BME280;4985;49.092;8.542;2024-02-28T13:07:55;99799.88;;;16.40;50.15
9893;BME280;4985;49.092;8.542;2024-02-28T13:10:20;99792.72;;;16.40;50.00
9893;BME280;4985;49.092;8.542;2024-02-28T13:12:47;99784.94;;;16.39;49.76
9893;BME280;4985;49.092;8.542;2024-02-28T13:15:12;99791.91;;;16.40;50.01